createdAt,value
2018-10-02T00:00:48.816Z,5.90
2018-10-02T00:03:17.132Z,5.90
2018-10-02T00:05:45.500Z,5.90
2018-10-02T00:08:13.972Z,5.80
2018-10-02T00:10:46.545Z,5.80
2018-10-02T00:13:20.384Z,5.70
2018-10-02T00:15:48.738Z,5.70
2018-10-02T00:18:17.060Z,5.60
2018-10-02T00:20:45.452Z,5.60
2018-10-02T00:23:13.772Z,5.50
2018-10-02T00:25:42.126Z,5.50
2018-10-02T00:28:10.572Z,5.40
2018-10-02T00:30:38.927Z,5.40
2018-10-02T00:33:07.448Z,5.40
2018-10-02T00:35:35.797Z,5.40
2018-10-02T00:38:04.138Z,5.30
2018-10-02T00:40:32.519Z,5.30
2018-10-02T00:43:00.869Z,5.20
2018-10-02T00:45:29.215Z,5.20
2018-10-02T00:47:57.560Z,5.20
2018-10-02T00:50:25.958Z,5.20
2018-10-02T00:52:54.280Z,5.10
2018-10-02T00:55:22.636Z,5.10
2018-10-02T00:57:50.966Z,5.00
2018-10-02T01:00:19.348Z,5.00
2018-10-02T01:02:47.669Z,5.00
2018-10-02T01:05:16.024Z,4.90
2018-10-02T01:07:44.348Z,4.90
2018-10-02T01:10:12.695Z,4.90
2018-10-02T01:12:41.027Z,4.90
2018-10-02T01:15:09.405Z,4.90
2018-10-02T01:17:37.742Z,4.80
2018-10-02T01:20:06.406Z,4.80
2018-10-02T01:22:34.724Z,4.80
2018-10-02T01:25:03.099Z,4.70
2018-10-02T01:27:31.436Z,4.70
2018-10-02T01:29:59.923Z,4.70
2018-10-02T01:32:28.276Z,4.70
2018-10-02T01:34:56.848Z,4.60
2018-10-02T01:37:25.245Z,4.60
2018-10-02T01:39:53.628Z,4.60
2018-10-02T01:42:21.975Z,4.50
2018-10-02T01:44:50.351Z,4.50
2018-10-02T01:47:19.028Z,4.40
2018-10-02T01:49:47.388Z,4.40
2018-10-02T01:52:15.750Z,4.40
2018-10-02T01:54:44.088Z,4.40
2018-10-02T01:57:12.467Z,4.30
2018-10-02T01:59:40.824Z,4.30
2018-10-02T02:02:09.200Z,4.30
2018-10-02T02:04:37.549Z,4.30
2018-10-02T02:07:06.236Z,4.30
2018-10-02T02:09:34.604Z,4.20
2018-10-02T02:12:02.960Z,4.20
2018-10-02T02:14:31.282Z,4.20
2018-10-02T02:16:59.636Z,4.20
2018-10-02T02:19:27.999Z,4.20
2018-10-02T02:21:56.352Z,4.20
2018-10-02T02:24:24.899Z,4.20
2018-10-02T02:26:53.248Z,4.20
2018-10-02T02:29:21.560Z,4.10
2018-10-02T02:31:49.917Z,4.10
2018-10-02T02:34:18.250Z,4.10
2018-10-02T02:36:46.609Z,4.10
2018-10-02T02:39:14.938Z,4.10
2018-10-02T02:41:43.292Z,4.00
2018-10-02T02:44:11.619Z,4.00
2018-10-02T02:46:39.979Z,4.00
2018-10-02T02:49:13.529Z,3.90
2018-10-02T02:51:41.923Z,3.90
2018-10-02T02:54:10.262Z,3.80
2018-10-02T02:56:38.620Z,3.80
2018-10-02T02:59:06.991Z,3.80
2018-10-02T03:01:35.356Z,3.80
2018-10-02T03:04:03.696Z,3.80
2018-10-02T03:06:32.085Z,3.70
2018-10-02T03:09:00.423Z,3.70
2018-10-02T03:11:28.792Z,3.60
2018-10-02T03:13:57.115Z,3.60
2018-10-02T03:16:25.489Z,3.60
2018-10-02T03:18:53.837Z,3.50
2018-10-02T03:21:22.204Z,3.50
2018-10-02T03:23:50.552Z,3.50
2018-10-02T03:26:18.925Z,3.50
2018-10-02T03:28:47.269Z,3.40
2018-10-02T03:31:15.631Z,3.40
2018-10-02T03:33:43.979Z,3.40
2018-10-02T03:36:12.359Z,3.30
2018-10-02T03:38:40.739Z,3.30
2018-10-02T03:41:09.220Z,3.20
2018-10-02T03:43:43.951Z,3.20
2018-10-02T03:46:12.385Z,3.20
2018-10-02T03:48:40.804Z,3.10
2018-10-02T03:51:09.184Z,3.10
2018-10-02T03:53:37.525Z,3.00
2018-10-02T03:56:05.909Z,3.00
2018-10-02T03:58:34.240Z,3.00
2018-10-02T04:01:02.609Z,2.90
2018-10-02T04:03:30.983Z,2.90
2018-10-02T04:05:59.327Z,2.80
2018-10-02T04:08:27.719Z,2.80
2018-10-02T04:10:56.086Z,2.70
2018-10-02T04:13:24.484Z,2.70
2018-10-02T04:15:52.842Z,2.70
2018-10-02T04:18:21.262Z,2.70
2018-10-02T04:20:49.750Z,2.70
2018-10-02T04:23:18.132Z,2.70
2018-10-02T04:25:46.563Z,2.60
2018-10-02T04:28:15.087Z,2.60
2018-10-02T04:30:43.653Z,2.60
2018-10-02T04:33:13.277Z,2.60
2018-10-02T04:35:41.663Z,2.60
2018-10-02T04:38:10.073Z,2.60
2018-10-02T04:40:38.468Z,2.60
2018-10-02T04:43:06.847Z,2.50
2018-10-02T04:45:35.253Z,2.50
2018-10-02T04:48:03.645Z,2.50
2018-10-02T04:50:32.001Z,2.50
2018-10-02T04:53:00.389Z,2.50
2018-10-02T04:55:28.743Z,2.50
2018-10-02T04:57:57.140Z,2.50
2018-10-02T05:00:25.514Z,2.50
2018-10-02T05:02:53.926Z,2.50
2018-10-02T05:05:22.285Z,2.50
2018-10-02T05:07:50.708Z,2.40
2018-10-02T05:10:19.400Z,2.40
2018-10-02T05:12:47.793Z,2.40
2018-10-02T05:15:16.144Z,2.40
2018-10-02T05:17:44.520Z,2.50
2018-10-02T05:20:12.889Z,2.50
2018-10-02T05:22:41.355Z,2.40
2018-10-02T05:25:09.708Z,2.40
2018-10-02T05:27:38.148Z,2.50
2018-10-02T05:30:06.456Z,2.70
2018-10-02T05:32:37.705Z,2.80
2018-10-02T05:35:06.128Z,2.80
2018-10-02T05:37:34.466Z,2.80
2018-10-02T05:40:03.200Z,2.80
2018-10-02T05:42:31.563Z,2.80
2018-10-02T05:44:59.924Z,2.80
2018-10-02T05:47:28.301Z,2.80
2018-10-02T05:49:56.625Z,2.70
2018-10-02T05:52:24.987Z,2.70
2018-10-02T05:54:53.324Z,2.70
2018-10-02T05:57:21.697Z,2.70
2018-10-02T05:59:50.068Z,2.70
2018-10-02T06:02:20.668Z,2.70
2018-10-02T06:04:49.001Z,2.70
2018-10-02T06:07:17.340Z,2.70
2018-10-02T06:09:45.721Z,2.60
2018-10-02T06:12:14.044Z,2.60
2018-10-02T06:14:42.432Z,2.60
2018-10-02T06:17:10.765Z,2.60
2018-10-02T06:19:39.141Z,2.70
2018-10-02T06:22:07.749Z,2.90
2018-10-02T06:24:36.190Z,3.00
2018-10-02T06:27:04.477Z,3.00
2018-10-02T06:29:32.883Z,2.90
2018-10-02T06:32:01.229Z,3.00
2018-10-02T06:34:29.589Z,3.00
2018-10-02T06:36:59.151Z,3.10
2018-10-02T06:39:29.404Z,3.10
2018-10-02T06:41:58.269Z,3.20
2018-10-02T06:44:26.676Z,3.30
2018-10-02T06:46:55.020Z,3.40
2018-10-02T06:49:23.397Z,3.50
2018-10-02T06:51:51.753Z,3.60
2018-10-02T06:54:20.108Z,3.60
2018-10-02T06:56:48.459Z,3.70
2018-10-02T06:59:16.856Z,3.70
2018-10-02T07:01:45.251Z,3.70
2018-10-02T07:04:13.845Z,3.70
2018-10-02T07:06:42.399Z,3.70
2018-10-02T07:09:11.405Z,3.80
2018-10-02T07:11:40.673Z,3.90
2018-10-02T07:14:09.792Z,4.10
2018-10-02T07:16:38.188Z,4.20
2018-10-02T07:19:06.960Z,4.40
2018-10-02T07:21:35.419Z,4.60
2018-10-02T07:24:03.816Z,4.80
2018-10-02T07:26:32.250Z,4.90
2018-10-02T07:29:00.603Z,5.00
2018-10-02T07:31:28.938Z,5.10
2018-10-02T07:33:58.042Z,5.20
2018-10-02T07:36:26.536Z,5.20
2018-10-02T07:38:54.941Z,5.30
2018-10-02T07:41:27.282Z,5.40
2018-10-02T07:43:57.496Z,5.50
2018-10-02T07:46:25.820Z,5.50
2018-10-02T07:48:54.181Z,5.60
2018-10-02T07:51:22.493Z,5.80
2018-10-02T07:53:50.914Z,6.00
2018-10-02T07:56:19.210Z,6.10
2018-10-02T07:58:48.292Z,6.30
2018-10-02T08:01:16.684Z,6.40
2018-10-02T08:03:45.040Z,6.50
2018-10-02T08:06:13.484Z,6.70
2018-10-02T08:08:41.894Z,6.80
2018-10-02T08:11:10.534Z,6.80
2018-10-02T08:13:38.919Z,6.80
2018-10-02T08:16:07.364Z,6.90
2018-10-02T08:18:35.768Z,7.00
2018-10-02T08:21:04.192Z,7.00
2018-10-02T08:23:33.182Z,7.10
2018-10-02T08:26:03.202Z,7.20
2018-10-02T08:28:33.573Z,7.20
2018-10-02T08:31:02.821Z,7.20
2018-10-02T08:33:31.168Z,7.20
2018-10-02T08:35:59.760Z,7.30
2018-10-02T08:38:27.969Z,7.30
2018-10-02T08:40:56.361Z,7.50
2018-10-02T08:43:24.784Z,7.60
2018-10-02T08:45:53.121Z,7.70
2018-10-02T08:48:21.466Z,7.70
2018-10-02T08:50:49.976Z,7.90
2018-10-02T08:53:18.314Z,8.10
2018-10-02T08:55:46.741Z,8.10
2018-10-02T08:58:26.534Z,8.10
2018-10-02T09:01:04.368Z,8.20
2018-10-02T09:03:40.496Z,8.30
2018-10-02T09:06:19.456Z,8.30
2018-10-02T09:09:00.363Z,8.40
2018-10-02T09:11:36.660Z,8.40
2018-10-02T09:14:17.375Z,8.40
2018-10-02T09:16:54.765Z,8.50
2018-10-02T09:19:31.656Z,8.50
2018-10-02T09:22:00.209Z,8.60
2018-10-02T09:24:28.624Z,8.60
2018-10-02T09:27:03.980Z,8.70
2018-10-02T09:29:32.373Z,8.90
2018-10-02T09:32:06.154Z,9.00
2018-10-02T09:36:44.551Z,9.10
2018-10-02T09:39:18.729Z,9.20
2018-10-02T09:41:52.576Z,9.30
2018-10-02T09:44:21.029Z,9.30
2018-10-02T09:46:49.429Z,9.30
2018-10-02T09:49:17.793Z,9.30
2018-10-02T09:51:46.341Z,9.40
2018-10-02T09:54:25.885Z,9.40
2018-10-02T09:56:54.650Z,9.50
2018-10-02T09:59:23.029Z,9.50
2018-10-02T10:01:56.825Z,9.60
2018-10-02T10:04:25.279Z,9.70
2018-10-02T10:06:53.743Z,9.80
2018-10-02T10:09:22.224Z,9.70
2018-10-02T10:11:50.613Z,9.70
2018-10-02T10:14:18.961Z,9.50
2018-10-02T10:16:47.456Z,9.40
2018-10-02T10:19:15.904Z,9.50
2018-10-02T10:21:44.304Z,9.50
2018-10-02T10:24:12.669Z,9.50
2018-10-02T10:26:41.210Z,9.60
2018-10-02T10:29:09.484Z,9.70
2018-10-02T10:31:37.865Z,9.70
2018-10-02T10:34:07.146Z,9.70
2018-10-02T10:36:35.514Z,9.70
2018-10-02T10:39:05.111Z,9.80
2018-10-02T10:41:33.584Z,9.90
2018-10-02T10:44:01.929Z,9.90
2018-10-02T10:46:30.329Z,9.90
2018-10-02T10:48:58.689Z,9.90
2018-10-02T10:51:27.264Z,9.90
2018-10-02T10:53:55.612Z,9.90
2018-10-02T10:56:24.003Z,9.80
2018-10-02T10:58:52.382Z,9.90
2018-10-02T11:01:20.755Z,9.90
2018-10-02T11:03:49.144Z,9.90
2018-10-02T11:06:18.192Z,9.90
2018-10-02T11:08:46.593Z,9.90
2018-10-02T11:11:14.974Z,9.90
2018-10-02T11:13:43.346Z,10.00
2018-10-02T11:16:11.735Z,10.00
2018-10-02T11:18:40.115Z,9.90
2018-10-02T11:21:08.497Z,9.90
2018-10-02T11:23:36.848Z,9.90
2018-10-02T11:26:05.213Z,9.90
2018-10-02T11:28:33.569Z,10.10
2018-10-02T11:31:01.925Z,10.10
2018-10-02T11:33:30.293Z,10.10
2018-10-02T11:35:58.641Z,10.10
2018-10-02T11:38:27.001Z,10.10
2018-10-02T11:40:55.404Z,10.10
2018-10-02T11:43:23.948Z,10.10
2018-10-02T11:45:52.210Z,10.20
2018-10-02T11:48:20.625Z,10.30
2018-10-02T11:50:49.050Z,10.50
2018-10-02T11:53:17.433Z,10.60
2018-10-02T11:55:45.819Z,10.70
2018-10-02T11:58:14.224Z,10.80
2018-10-02T12:00:42.754Z,10.80
2018-10-02T12:03:11.084Z,10.90
2018-10-02T12:05:39.603Z,10.90
2018-10-02T12:08:08.020Z,11.10
2018-10-02T12:10:36.413Z,11.10
2018-10-02T12:13:04.906Z,11.10
2018-10-02T12:15:33.241Z,11.10
2018-10-02T12:18:01.672Z,11.00
2018-10-02T12:20:30.041Z,10.90
2018-10-02T12:22:58.469Z,10.90
2018-10-02T12:25:26.837Z,10.90
2018-10-02T12:27:55.339Z,10.90
2018-10-02T12:30:23.712Z,10.90
2018-10-02T12:32:52.103Z,10.90
2018-10-02T12:35:20.468Z,10.90
2018-10-02T12:37:48.930Z,10.90
2018-10-02T12:40:17.316Z,10.90
2018-10-02T12:42:45.696Z,10.90
2018-10-02T12:45:14.069Z,10.90
2018-10-02T12:47:42.456Z,11.00
2018-10-02T12:50:10.799Z,10.90
2018-10-02T12:52:39.348Z,10.90
2018-10-02T12:55:07.645Z,10.80
2018-10-02T12:57:36.037Z,10.80
2018-10-02T13:00:05.029Z,10.80
2018-10-02T13:02:33.424Z,10.80
2018-10-02T13:05:01.773Z,10.80
2018-10-02T13:07:30.169Z,10.80
2018-10-02T13:09:58.576Z,10.80
2018-10-02T13:12:26.940Z,10.80
2018-10-02T13:14:55.301Z,10.80
2018-10-02T13:17:23.655Z,10.80
2018-10-02T13:19:52.046Z,10.80
2018-10-02T13:22:20.406Z,10.80
2018-10-02T13:24:48.854Z,10.90
2018-10-02T13:27:17.171Z,10.90
2018-10-02T13:29:45.564Z,10.90
2018-10-02T13:32:13.946Z,10.90
2018-10-02T13:34:42.409Z,10.80
2018-10-02T13:37:10.761Z,10.80
2018-10-02T13:39:39.167Z,10.80
2018-10-02T13:42:07.552Z,10.70
2018-10-02T13:44:35.961Z,10.70
2018-10-02T13:47:04.325Z,10.70
2018-10-02T13:49:32.717Z,10.60
2018-10-02T13:52:01.083Z,10.60
2018-10-02T13:54:29.477Z,10.60
2018-10-02T13:56:57.836Z,10.60
2018-10-02T13:59:26.243Z,10.50
2018-10-02T14:01:54.601Z,10.50
2018-10-02T14:04:23.002Z,10.50
2018-10-02T14:06:51.359Z,10.40
2018-10-02T14:09:19.768Z,10.30
2018-10-02T14:11:48.129Z,10.40
2018-10-02T14:14:16.532Z,10.20
2018-10-02T14:16:44.959Z,10.10
2018-10-02T14:19:13.337Z,9.90
2018-10-02T14:21:41.730Z,9.90
2018-10-02T14:24:10.161Z,9.90
2018-10-02T14:26:38.544Z,9.90
2018-10-02T14:29:07.132Z,9.80
2018-10-02T14:31:35.487Z,9.70
2018-10-02T14:34:03.865Z,9.60
2018-10-02T14:36:32.202Z,9.50
2018-10-02T14:39:00.584Z,9.50
2018-10-02T14:41:28.941Z,9.40
2018-10-02T14:43:57.309Z,9.40
2018-10-02T14:46:25.647Z,9.40
2018-10-02T14:48:54.000Z,9.30
2018-10-02T14:51:22.332Z,9.40
2018-10-02T14:53:50.692Z,9.40
2018-10-02T14:56:19.045Z,9.30
2018-10-02T14:58:47.397Z,9.40
2018-10-02T15:01:15.741Z,9.40
2018-10-02T15:03:44.104Z,9.40
2018-10-02T15:06:12.430Z,9.40
2018-10-02T15:08:40.807Z,9.40
2018-10-02T15:11:09.160Z,9.30
2018-10-02T15:13:37.496Z,9.40
2018-10-02T15:16:05.968Z,9.50
2018-10-02T15:18:34.557Z,9.50
2018-10-02T15:21:02.910Z,9.40
2018-10-02T15:23:31.236Z,9.40
2018-10-02T15:25:59.608Z,9.50
2018-10-02T15:28:27.949Z,9.50
2018-10-02T15:30:56.305Z,9.50
2018-10-02T15:33:24.628Z,9.50
2018-10-02T15:35:52.980Z,9.50
2018-10-02T15:38:21.321Z,9.50
2018-10-02T15:40:49.753Z,9.50
2018-10-02T15:43:18.120Z,9.50
2018-10-02T15:45:46.510Z,9.50
2018-10-02T15:48:14.856Z,9.50
2018-10-02T15:50:43.381Z,9.50
2018-10-02T15:53:11.694Z,9.60
2018-10-02T15:55:40.089Z,9.60
2018-10-02T15:58:08.479Z,9.50
2018-10-02T16:00:36.858Z,9.60
2018-10-02T16:03:05.212Z,9.60
2018-10-02T16:05:33.583Z,9.50
2018-10-02T16:08:01.911Z,9.50
2018-10-02T16:10:30.275Z,9.60
2018-10-02T16:12:58.620Z,9.60
2018-10-02T16:15:26.990Z,9.60
2018-10-02T16:17:55.397Z,9.50
2018-10-02T16:20:23.733Z,9.50
2018-10-02T16:22:52.195Z,9.60
2018-10-02T16:25:20.551Z,9.60
2018-10-02T16:27:48.927Z,9.60
2018-10-02T16:30:17.345Z,9.60
2018-10-02T16:32:45.692Z,9.60
2018-10-02T16:35:14.078Z,9.60
2018-10-02T16:37:42.441Z,9.50
2018-10-02T16:40:10.821Z,9.50
2018-10-02T16:42:39.153Z,9.60
2018-10-02T16:45:07.796Z,9.60
2018-10-02T16:47:36.258Z,9.60
2018-10-02T16:50:04.848Z,9.60
2018-10-02T16:52:33.240Z,9.60
2018-10-02T16:55:01.621Z,9.60
2018-10-02T16:57:29.972Z,9.60
2018-10-02T16:59:58.373Z,9.50
2018-10-02T17:02:26.724Z,9.50
2018-10-02T17:04:55.100Z,9.50
2018-10-02T17:07:23.482Z,9.50
2018-10-02T17:09:51.844Z,9.50
2018-10-02T17:12:20.227Z,9.50
2018-10-02T17:14:48.572Z,9.50
2018-10-02T17:17:16.945Z,9.50
2018-10-02T17:19:45.276Z,9.50
2018-10-02T17:22:13.652Z,9.40
2018-10-02T17:24:41.991Z,9.50
2018-10-02T17:27:10.500Z,9.50
2018-10-02T17:29:38.849Z,9.60
2018-10-02T17:32:07.488Z,9.60
2018-10-02T17:34:35.878Z,9.60
2018-10-02T17:37:04.268Z,9.60
2018-10-02T17:39:32.604Z,9.60
2018-10-02T17:42:00.997Z,9.50
2018-10-02T17:44:29.341Z,9.50
2018-10-02T17:46:57.708Z,9.50
2018-10-02T17:49:26.050Z,9.50
2018-10-02T17:51:54.422Z,9.50
2018-10-02T17:54:22.783Z,9.40
2018-10-02T17:56:51.165Z,9.50
2018-10-02T17:59:19.508Z,9.40
2018-10-02T18:01:47.870Z,9.40
2018-10-02T18:04:16.227Z,9.40
2018-10-02T18:06:44.613Z,9.40
2018-10-02T18:09:12.958Z,9.40
2018-10-02T18:11:41.361Z,9.30
2018-10-02T18:14:09.721Z,9.30
2018-10-02T18:16:38.128Z,9.30
2018-10-02T18:19:06.487Z,9.30
2018-10-02T18:21:34.855Z,9.30
2018-10-02T18:24:03.203Z,9.30
2018-10-02T18:26:31.588Z,9.30
2018-10-02T18:28:59.933Z,9.20
2018-10-02T18:31:28.316Z,9.20
2018-10-02T18:33:56.683Z,9.20
2018-10-02T18:36:25.090Z,9.10
2018-10-02T18:38:53.505Z,9.10
2018-10-02T18:41:21.848Z,9.10
2018-10-02T18:43:50.172Z,9.00
2018-10-02T18:46:18.557Z,9.00
2018-10-02T18:48:46.962Z,9.00
2018-10-02T18:51:15.268Z,9.00
2018-10-02T18:53:43.626Z,8.90
2018-10-02T18:56:12.097Z,8.90
2018-10-02T18:58:40.375Z,8.90
2018-10-02T19:01:11.506Z,8.90
2018-10-02T19:03:43.006Z,8.90
2018-10-02T19:06:11.428Z,8.90
2018-10-02T19:08:45.185Z,8.80
2018-10-02T19:11:19.005Z,8.80
2018-10-02T19:13:47.350Z,8.80
2018-10-02T19:16:21.185Z,8.80
2018-10-02T19:18:49.546Z,8.80
2018-10-02T19:21:17.912Z,8.70
2018-10-02T19:23:46.253Z,8.80
2018-10-02T19:26:19.590Z,8.80
2018-10-02T19:28:48.278Z,8.80
2018-10-02T19:31:21.883Z,8.80
2018-10-02T19:33:50.365Z,8.80
2018-10-02T19:36:18.693Z,8.80
2018-10-02T19:38:52.385Z,8.80
2018-10-02T19:41:20.777Z,8.80
2018-10-02T19:43:49.165Z,8.70
2018-10-02T19:46:25.272Z,8.70
2018-10-02T19:48:53.893Z,8.80
2018-10-02T19:51:27.452Z,8.70
2018-10-02T19:53:55.910Z,8.70
2018-10-02T19:56:24.256Z,8.70
2018-10-02T19:58:52.633Z,8.70
2018-10-02T20:01:20.987Z,8.70
2018-10-02T20:03:49.347Z,8.70
2018-10-02T20:06:17.680Z,8.60
2018-10-02T20:08:46.047Z,8.60
2018-10-02T20:11:14.416Z,8.60
2018-10-02T20:13:42.937Z,8.60
2018-10-02T20:16:11.141Z,8.60
2018-10-02T20:18:39.502Z,8.60
2018-10-02T20:21:07.843Z,8.60
2018-10-02T20:23:36.200Z,8.60
2018-10-02T20:26:04.547Z,8.50
2018-10-02T20:28:32.951Z,8.50
2018-10-02T20:31:01.293Z,8.50
2018-10-02T20:33:29.837Z,8.50
2018-10-02T20:35:58.175Z,8.50
2018-10-02T20:38:26.559Z,8.50
2018-10-02T20:40:55.017Z,8.50
2018-10-02T20:43:23.390Z,8.50
2018-10-02T20:45:51.856Z,8.50
2018-10-02T20:48:20.229Z,8.50
2018-10-02T20:50:48.584Z,8.50
2018-10-02T20:53:16.964Z,8.50
2018-10-02T20:55:45.472Z,8.50
2018-10-02T20:58:13.925Z,8.50
2018-10-02T21:00:42.255Z,8.50
2018-10-02T21:03:10.623Z,8.50
2018-10-02T21:05:38.966Z,8.50
2018-10-02T21:08:07.352Z,8.50
2018-10-02T21:10:35.688Z,8.60
2018-10-02T21:13:04.121Z,8.50
2018-10-02T21:15:32.549Z,8.50
2018-10-02T21:18:00.904Z,8.50
2018-10-02T21:20:29.240Z,8.50
2018-10-02T21:22:57.642Z,8.50
2018-10-02T21:25:26.020Z,8.60
2018-10-02T21:27:54.414Z,8.60
2018-10-02T21:30:22.760Z,8.60
2018-10-02T21:32:51.132Z,8.60
2018-10-02T21:35:19.467Z,8.50
2018-10-02T21:37:47.855Z,8.60
2018-10-02T21:40:16.306Z,8.50
2018-10-02T21:42:44.585Z,8.50
2018-10-02T21:45:12.896Z,8.50
2018-10-02T21:47:44.413Z,8.50
2018-10-02T21:50:12.732Z,8.50
2018-10-02T21:52:41.093Z,8.40
2018-10-02T21:55:10.061Z,8.30
2018-10-02T21:57:38.520Z,8.30
2018-10-02T22:00:07.792Z,8.30
2018-10-02T22:02:36.142Z,8.30
2018-10-02T22:05:04.639Z,8.20
2018-10-02T22:07:32.977Z,8.20
2018-10-02T22:10:01.349Z,8.30
2018-10-02T22:12:29.707Z,8.30
2018-10-02T22:14:58.056Z,8.20
2018-10-02T22:17:26.410Z,8.30
2018-10-02T22:19:54.768Z,8.30
2018-10-02T22:22:23.094Z,8.30
2018-10-02T22:24:51.475Z,8.40
2018-10-02T22:27:19.900Z,8.40
2018-10-02T22:29:48.740Z,8.40
2018-10-02T22:32:17.079Z,8.40
2018-10-02T22:34:45.564Z,8.50
2018-10-02T22:37:13.917Z,8.50
2018-10-02T22:39:42.288Z,8.50
2018-10-02T22:42:10.628Z,8.50
2018-10-02T22:44:38.997Z,8.50
2018-10-02T22:47:07.346Z,8.50
2018-10-02T22:49:35.724Z,8.40
2018-10-02T22:52:04.128Z,8.40
2018-10-02T22:54:32.540Z,8.40
2018-10-02T22:57:00.881Z,8.40
2018-10-02T22:59:29.257Z,8.40
2018-10-02T23:01:57.597Z,8.40
2018-10-02T23:04:25.959Z,8.40
2018-10-02T23:06:54.288Z,8.40
2018-10-02T23:09:22.648Z,8.40
2018-10-02T23:11:50.976Z,8.40
2018-10-02T23:14:19.332Z,8.40
2018-10-02T23:16:47.659Z,8.40
2018-10-02T23:19:16.042Z,8.40
2018-10-02T23:21:44.363Z,8.40
2018-10-02T23:24:12.717Z,8.40
2018-10-02T23:26:41.085Z,8.50
2018-10-02T23:29:09.441Z,8.50
2018-10-02T23:31:37.753Z,8.60
2018-10-02T23:34:06.105Z,8.60
2018-10-02T23:36:34.444Z,8.70
2018-10-02T23:39:02.972Z,8.70
2018-10-02T23:41:31.305Z,8.70
2018-10-02T23:43:59.651Z,8.70
2018-10-02T23:46:27.984Z,8.70
2018-10-02T23:48:56.308Z,8.80
2018-10-02T23:51:24.677Z,8.80
2018-10-02T23:53:53.009Z,8.80
2018-10-02T23:56:21.360Z,8.80
2018-10-02T23:58:49.701Z,8.80
